This is the latest recevied weather packets stored in our database for station/object G4CVN. If no packets are shown the sender has not sent any weather packets the latest 10 day(s).
| Time | Temp. | Humidity | Pressure | Rain* | Wind** | Luminosity | Snow |
|---|---|---|---|---|---|---|---|
| 1777795516 | 12.78° C | 96% | 1014.1 hPa | 0 mm | - | 182 W/m² | - |
| 1777794356 | 12.78° C | 96% | 1014.1 hPa | 0 mm | - | 129 W/m² | - |
| 1777789516 | 12.78° C | 96% | 1013.6 hPa | 0 mm | - | 61 W/m² | - |
| 1777785916 | 12.22° C | 96% | 1013.4 hPa | 0 mm | - | 19 W/m² | - |
| 1777782357 | 12.78° C | 96% | 1013.3 hPa | 0 mm | - | 0 W/m² | - |
| 1777778716 | 12.78° C | 96% | 1013.5 hPa | 0 mm | - | 0 W/m² | - |
| 1777762517 | 12.22° C | 94% | 1015 hPa | 0 mm | - | 0 W/m² | - |
| 1777761337 | 12.22° C | 94% | 1015 hPa | 0 mm | - | 0 W/m² | - |
| 1777756517 | 13.33° C | 93% | 1015.2 hPa | 0.25 mm | - | 0 W/m² | - |
| 1777755917 | 13.89° C | 93% | 1015.3 hPa | 0.25 mm | - | 0 W/m² | - |
| 1777754717 | 13.89° C | 93% | 1015.3 hPa | 0.25 mm | - | 0 W/m² | - |
| 1777752917 | 13.89° C | 93% | 1015.6 hPa | 0 mm | - | 0 W/m² | - |
| 1777746917 | 14.44° C | 93% | 1015.5 hPa | 0 mm | - | 45 W/m² | - |
| 1777745117 | 14.44° C | 92% | 1015.6 hPa | 0 mm | - | 10 W/m² | - |
| 1777743917 | 14.44° C | 92% | 1015.6 hPa | 0 mm | - | 24 W/m² | - |
| 1777742717 | 15° C | 93% | 1015.7 hPa | 0 mm | - | 72 W/m² | - |
| 1777738517 | 13.89° C | 88% | 1017.1 hPa | 3.05 mm | - | 38 W/m² | - |
| 1777737317 | 14.44° C | 84% | 1017.5 hPa | 2.29 mm | - | 29 W/m² | - |
| 1777728317 | 23.33° C | 51% | 1018.6 hPa | 0 mm | - | 793 W/m² | - |
| 1777723517 | 22.22° C | 56% | 1019.9 hPa | 0 mm | - | 813 W/m² | - |
| 1777717517 | 17.78° C | 72% | 1021.1 hPa | 0 mm | - | 718 W/m² | - |
| 1777714517 | 13.89° C | 87% | 1021.5 hPa | 0 mm | - | 323 W/m² | - |
| 1777708517 | 11.67° C | 95% | 1022.5 hPa | 0 mm | - | 168 W/m² | - |
| 1777707317 | 11.11° C | 95% | 1022.5 hPa | 0 mm | - | 98 W/m² | - |
| 1777700737 | 11.11° C | 96% | 1022.4 hPa | 0 mm | - | 20 W/m² | - |
* Rain latest hour (hover to see other rain measurements)
** Current wind speed in m/s (hover to see current wind gust speed)